Terminal Aerodrome Forecast
Issued by NWS

Home | Current Version | Previous Version | Text Only | Print | Product List | Glossary On
Versions: 1 2 3 4 5 6 7 8 9 10 11 12 13 14 15 16 17 18 19 20 21 22 23 24 25 26 27 28 29 30 31 32 33 34 35 36
000
FTUS45 KBOI 201156
TAFBKE
TAF
KBKE 201156Z 2012/2112 VRB04KT P6SM OVC100
     FM201500 VRB05KT P6SM -SHRA OVC050
     FM202200 32012KT P6SM VCTS BKN070CB
      TEMPO 2023/2102 VRB15G25KT -SHRA BKN050
     FM210300 29008KT P6SM BKN070=

USA.gov is the U.S. government's official web portal to all federal, state and local government web resources and services.